Time;durP1;ratioP1;P1;durP2;ratioP2;P2;SDS_P1;SDS_P2;PMS_P1;PMS_P2;Temp;Humidity;BMP_temperature;BMP_pressure;BME280_temperature;BME280_humidity;BME280_pressure;Samples;Min_cycle;Max_cycle;Signal;HPM_P1;HPM_P2
2022/03/23 00:01:31;;;;;;;68.00;16.75;;;13.80;60.60;;;;;;5100558;27;20206;-62
2022/03/23 00:03:56;;;;;;;59.38;16.80;;;13.70;60.60;;;;;;5117603;27;20551;-62
2022/03/23 00:06:22;;;;;;;69.50;18.10;;;13.70;60.80;;;;;;5100702;27;20035;-63
2022/03/23 00:08:49;;;;;;;78.65;17.08;;;13.70;60.80;;;;;;5103052;27;20122;-62
2022/03/23 00:11:15;;;;;;;62.70;18.17;;;13.60;60.80;;;;;;5101786;27;20018;-61
2022/03/23 00:13:40;;;;;;;42.95;15.88;;;13.60;60.90;;;;;;5106855;28;20371;-62
2022/03/23 00:16:06;;;;;;;70.22;17.70;;;13.50;61.60;;;;;;5085522;28;20095;-62
2022/03/23 00:18:31;;;;;;;69.90;17.05;;;13.50;61.00;;;;;;5102787;27;20045;-61
2022/03/23 00:20:57;;;;;;;69.20;17.05;;;13.50;61.20;;;;;;5101880;27;20205;-62
2022/03/23 00:23:22;;;;;;;60.15;16.58;;;13.40;61.20;;;;;;5120477;27;20032;-61
2022/03/23 00:25:48;;;;;;;52.90;15.57;;;13.40;61.20;;;;;;5119023;27;20554;-62
2022/03/23 00:28:13;;;;;;;66.80;16.38;;;13.30;61.30;;;;;;5082925;28;20078;-62
2022/03/23 00:30:39;;;;;;;53.28;15.15;;;13.30;61.30;;;;;;5099719;27;20035;-61
2022/03/23 00:33:05;;;;;;;54.97;15.73;;;13.30;61.20;;;;;;5102869;27;20039;-61
2022/03/23 00:35:30;;;;;;;50.13;14.00;;;13.30;61.20;;;;;;5123414;27;20183;-61
2022/03/23 00:37:58;;;;;;;43.28;14.95;;;13.30;61.20;;;;;;5124021;27;20547;-61
2022/03/23 00:40:24;;;;;;;55.58;14.57;;;13.20;61.20;;;;;;5091299;27;20571;-62
2022/03/23 00:42:49;;;;;;;42.65;14.27;;;13.20;61.30;;;;;;5108877;27;20046;-61
2022/03/23 00:45:15;;;;;;;41.08;13.45;;;13.20;61.40;;;;;;5122294;27;20039;-62
2022/03/23 00:47:41;;;;;;;51.88;15.13;;;13.20;61.50;;;;;;5122588;27;20078;-61
2022/03/23 00:50:07;;;;;;;42.05;13.77;;;13.10;61.50;;;;;;5105264;27;20051;-62
2022/03/23 00:52:34;;;;;;;39.95;14.20;;;13.20;61.60;;;;;;5109423;27;20061;-62
2022/03/23 00:54:59;;;;;;;51.35;15.25;;;13.10;61.70;;;;;;5090630;28;20031;-61
2022/03/23 00:57:25;;;;;;;44.50;14.93;;;13.10;61.70;;;;;;5110659;27;20076;-62
2022/03/23 00:59:51;;;;;;;46.63;14.25;;;13.10;61.80;;;;;;5115617;27;20030;-61
2022/03/23 01:02:16;;;;;;;47.47;14.40;;;13.10;61.80;;;;;;5121779;27;20035;-60
2022/03/23 01:04:42;;;;;;;34.05;14.80;;;13.00;62.00;;;;;;5109312;27;20040;-61
2022/03/23 01:07:07;;;;;;;41.25;14.82;;;13.00;62.00;;;;;;5103295;27;20031;-61
2022/03/23 01:09:33;;;;;;;40.67;12.88;;;13.00;62.00;;;;;;5105930;27;20035;-62
2022/03/23 01:11:58;;;;;;;42.45;13.82;;;13.00;62.00;;;;;;5119371;27;20031;-62
2022/03/23 01:14:25;;;;;;;41.28;14.57;;;13.00;61.90;;;;;;5123023;27;20043;-61
2022/03/23 01:16:50;;;;;;;42.63;14.23;;;12.90;61.90;;;;;;5105548;27;20352;-61
2022/03/23 01:19:17;;;;;;;38.70;12.98;;;12.90;61.90;;;;;;5118169;27;20050;-61
2022/03/23 01:21:44;;;;;;;47.15;14.02;;;12.90;61.90;;;;;;5105703;27;20579;-61
2022/03/23 01:24:10;;;;;;;44.50;15.20;;;12.90;61.90;;;;;;5097951;27;20199;-61
2022/03/23 01:26:36;;;;;;;37.60;12.55;;;12.80;62.00;;;;;;5122498;27;20064;-60
2022/03/23 01:29:02;;;;;;;49.05;14.52;;;12.80;62.10;;;;;;5122761;27;20027;-61
2022/03/23 01:31:27;;;;;;;39.70;13.98;;;12.70;62.00;;;;;;5086805;27;20051;-61
2022/03/23 01:33:59;;;;;;;33.78;13.32;;;12.70;62.10;;;;;;5123879;27;20050;-62
2022/03/23 01:36:27;;;;;;;39.80;13.10;;;12.70;62.10;;;;;;5097822;27;20108;-60
2022/03/23 01:38:53;;;;;;;31.38;12.40;;;12.70;62.10;;;;;;5090040;27;20143;-61
2022/03/23 01:41:19;;;;;;;37.50;12.93;;;12.70;62.00;;;;;;5107143;27;20043;-61
2022/03/23 01:43:45;;;;;;;28.67;11.52;;;12.70;62.00;;;;;;5105665;27;20155;-61
2022/03/23 01:46:10;;;;;;;25.63;11.85;;;12.60;62.10;;;;;;5101813;27;20123;-61
2022/03/23 01:48:36;;;;;;;33.22;12.20;;;12.60;62.30;;;;;;5117162;27;20044;-61
2022/03/23 01:51:01;;;;;;;35.53;13.70;;;12.60;62.60;;;;;;5098720;27;20341;-60
2022/03/23 01:53:27;;;;;;;27.13;12.43;;;12.60;62.70;;;;;;5099413;27;20047;-61
2022/03/23 01:55:52;;;;;;;32.88;13.98;;;12.50;62.80;;;;;;5104053;27;20019;-62
2022/03/23 01:58:21;;;;;;;41.97;15.43;;;12.50;63.10;;;;;;5103877;27;20374;-62
2022/03/23 02:00:46;;;;;;;35.75;13.80;;;12.50;63.20;;;;;;5123193;27;20443;-61
2022/03/23 02:03:12;;;;;;;34.03;14.13;;;12.40;63.40;;;;;;5103988;27;20095;-61
2022/03/23 02:05:38;;;;;;;34.58;14.25;;;12.40;63.40;;;;;;5104851;27;20024;-61
2022/03/23 02:08:03;;;;;;;42.70;12.45;;;12.40;63.50;;;;;;5101777;27;20126;-61
2022/03/23 02:10:29;;;;;;;37.05;17.27;;;12.40;63.60;;;;;;5086433;27;20130;-62
2022/03/23 02:12:54;;;;;;;36.63;16.25;;;12.40;63.60;;;;;;5085340;27;20130;-62
2022/03/23 02:15:21;;;;;;;38.60;15.90;;;12.40;63.40;;;;;;5104858;27;20035;-61
2022/03/23 02:17:50;;;;;;;39.60;15.35;;;12.30;63.40;;;;;;5119181;27;20091;-61
2022/03/23 02:20:15;;;;;;;38.30;14.32;;;12.30;63.50;;;;;;5120587;27;20058;-61
2022/03/23 02:22:41;;;;;;;30.08;13.23;;;12.30;64.10;;;;;;5074259;27;20459;-61
2022/03/23 02:25:07;;;;;;;27.23;14.60;;;12.20;63.50;;;;;;5115100;27;20554;-60
2022/03/23 02:27:36;;;;;;;35.08;14.07;;;12.20;63.50;;;;;;5105260;27;20045;-61
2022/03/23 02:30:03;;;;;;;26.13;13.57;;;12.20;63.60;;;;;;5096277;28;20510;-60
2022/03/23 02:32:29;;;;;;;26.48;12.95;;;12.20;63.60;;;;;;5101804;28;20118;-60
2022/03/23 02:34:54;;;;;;;33.28;13.52;;;12.10;63.60;;;;;;5099988;28;20114;-61
2022/03/23 02:37:20;;;;;;;32.70;12.88;;;12.10;63.60;;;;;;5092807;27;20522;-61
2022/03/23 02:39:45;;;;;;;30.83;13.80;;;12.10;63.60;;;;;;5104142;27;20091;-61
2022/03/23 02:42:11;;;;;;;21.77;13.27;;;12.10;63.70;;;;;;5099522;27;20127;-62
2022/03/23 02:44:37;;;;;;;29.65;13.90;;;12.10;63.70;;;;;;5099549;27;20019;-61
2022/03/23 02:47:04;;;;;;;23.02;12.30;;;12.10;63.60;;;;;;5086494;28;20019;-61
2022/03/23 02:49:29;;;;;;;30.98;13.18;;;12.10;63.50;;;;;;5083278;28;20034;-61
2022/03/23 02:51:55;;;;;;;29.35;12.43;;;12.00;63.50;;;;;;5104309;27;20035;-61
2022/03/23 03:02:59;;;;;;;31.02;12.82;;;11.90;63.40;;;;;;5097616;28;20079;-61
2022/03/23 03:05:25;;;;;;;25.15;13.48;;;11.80;63.40;;;;;;5069767;27;20028;-61
2022/03/23 03:10:34;;;;;;;24.85;13.27;;;11.80;63.40;;;;;;5103261;28;20070;-61
2022/03/23 03:13:00;;;;;;;27.00;13.32;;;11.70;63.40;;;;;;5083463;27;20051;-61
2022/03/23 03:15:26;;;;;;;24.20;12.88;;;11.70;63.30;;;;;;5105717;27;20419;-61
2022/03/23 03:17:51;;;;;;;22.13;12.00;;;11.70;63.40;;;;;;5104222;27;20031;-62
2022/03/23 03:20:17;;;;;;;28.05;12.50;;;11.70;63.40;;;;;;5069968;28;20383;-62
2022/03/23 03:22:43;;;;;;;27.50;12.90;;;11.70;63.40;;;;;;5079684;27;20546;-61
2022/03/23 03:25:12;;;;;;;26.48;13.23;;;11.60;63.40;;;;;;5077950;27;20066;-61
2022/03/23 03:27:38;;;;;;;22.73;13.25;;;11.60;63.50;;;;;;5083408;28;20027;-61
2022/03/23 03:30:11;;;;;;;23.70;12.73;;;11.60;63.50;;;;;;5065828;28;20134;-62
2022/03/23 03:32:37;;;;;;;20.40;11.82;;;11.50;63.50;;;;;;5091660;27;20024;-61
2022/03/23 03:35:03;;;;;;;19.70;11.80;;;11.50;63.50;;;;;;5104345;27;20042;-61
2022/03/23 03:37:28;;;;;;;28.58;12.23;;;11.40;63.50;;;;;;5114528;27;20158;-61
2022/03/23 03:39:54;;;;;;;24.15;12.80;;;11.40;63.40;;;;;;5117972;27;20134;-60
2022/03/23 03:42:19;;;;;;;21.42;11.57;;;11.40;63.50;;;;;;5114983;27;20043;-61
2022/03/23 03:44:45;;;;;;;24.95;11.02;;;11.40;63.50;;;;;;5114280;27;20115;-61
2022/03/23 03:47:11;;;;;;;24.13;12.40;;;11.40;63.50;;;;;;5097158;27;20035;-61
2022/03/23 03:49:37;;;;;;;21.73;11.85;;;11.30;63.50;;;;;;5119003;27;20074;-61
2022/03/23 03:52:04;;;;;;;24.38;12.45;;;11.30;63.50;;;;;;5102557;27;20078;-62
2022/03/23 03:54:29;;;;;;;26.08;11.40;;;11.30;63.60;;;;;;5101170;27;20030;-60
2022/03/23 03:56:55;;;;;;;21.35;11.35;;;11.30;63.60;;;;;;5122141;27;20096;-62
2022/03/23 03:59:20;;;;;;;20.50;11.82;;;11.20;63.60;;;;;;5101194;27;20072;-61
2022/03/23 04:01:46;;;;;;;20.60;11.00;;;11.20;63.60;;;;;;5120190;27;20490;-60
2022/03/23 04:04:11;;;;;;;18.13;11.88;;;11.10;63.60;;;;;;5121060;27;20038;-61
2022/03/23 04:06:37;;;;;;;19.83;11.02;;;11.10;63.70;;;;;;5101995;27;20035;-62
2022/03/23 04:09:03;;;;;;;18.02;10.95;;;11.10;63.70;;;;;;5103394;28;20110;-60
2022/03/23 04:11:30;;;;;;;22.98;11.52;;;11.10;63.70;;;;;;5120876;27;20031;-60
2022/03/23 04:13:55;;;;;;;21.23;10.73;;;11.00;63.60;;;;;;5103933;27;20034;-60
2022/03/23 04:16:21;;;;;;;14.57;10.98;;;11.00;63.70;;;;;;5100930;27;20035;-60
2022/03/23 04:18:47;;;;;;;16.40;10.38;;;11.00;63.70;;;;;;5100170;27;20105;-61
2022/03/23 04:21:12;;;;;;;21.25;12.00;;;11.00;63.70;;;;;;5119831;27;20046;-61
2022/03/23 04:23:38;;;;;;;15.68;10.40;;;11.00;63.60;;;;;;5121095;27;20023;-61
2022/03/23 04:26:04;;;;;;;16.52;11.27;;;11.00;63.60;;;;;;5119484;27;20608;-61
2022/03/23 04:28:29;;;;;;;22.73;12.32;;;10.90;63.60;;;;;;5120537;27;20039;-60
2022/03/23 04:30:55;;;;;;;19.75;11.38;;;11.00;63.60;;;;;;5118060;27;20043;-62
2022/03/23 04:33:20;;;;;;;19.35;11.50;;;10.90;63.60;;;;;;5121326;27;20024;-60
2022/03/23 04:35:46;;;;;;;22.13;11.57;;;10.90;63.70;;;;;;5100095;28;20027;-61
2022/03/23 04:38:11;;;;;;;21.17;12.68;;;10.80;63.70;;;;;;5100574;28;20028;-60
2022/03/23 04:40:37;;;;;;;23.30;12.25;;;10.80;63.70;;;;;;5116476;27;20071;-60
2022/03/23 04:43:02;;;;;;;19.27;11.05;;;10.80;63.80;;;;;;5120722;28;20533;-61
2022/03/23 04:45:28;;;;;;;20.80;10.68;;;10.70;63.80;;;;;;5119586;28;20041;-60
2022/03/23 04:47:53;;;;;;;17.83;11.30;;;10.70;63.80;;;;;;5102291;27;20106;-60
2022/03/23 04:50:19;;;;;;;17.83;11.50;;;10.70;63.80;;;;;;5100897;28;20391;-61
2022/03/23 04:52:45;;;;;;;17.88;11.48;;;10.70;63.90;;;;;;5119533;27;20039;-60
2022/03/23 04:55:11;;;;;;;20.95;12.05;;;10.70;63.90;;;;;;5086079;27;20043;-61
2022/03/23 04:57:37;;;;;;;16.88;11.25;;;10.70;63.90;;;;;;5102146;28;20027;-60
2022/03/23 05:00:04;;;;;;;17.05;10.93;;;10.70;64.00;;;;;;5119651;27;20522;-61
2022/03/23 05:02:29;;;;;;;16.92;10.75;;;10.60;63.80;;;;;;5121837;27;20084;-61
2022/03/23 05:04:55;;;;;;;21.50;11.13;;;10.60;63.90;;;;;;5101264;28;20027;-60
2022/03/23 05:07:20;;;;;;;17.77;10.48;;;10.60;64.00;;;;;;5120692;27;20435;-61
2022/03/23 05:09:46;;;;;;;19.15;10.45;;;10.50;63.90;;;;;;5101016;28;20424;-61
2022/03/23 05:12:11;;;;;;;19.35;11.00;;;10.50;64.00;;;;;;5119865;27;20130;-62
2022/03/23 05:14:37;;;;;;;14.45;10.65;;;10.50;64.20;;;;;;5085728;27;20027;-62
2022/03/23 05:17:03;;;;;;;17.40;10.95;;;10.50;64.00;;;;;;5099153;28;20027;-61
2022/03/23 05:19:28;;;;;;;17.05;11.02;;;10.40;64.10;;;;;;5085302;27;20052;-61
2022/03/23 05:21:54;;;;;;;15.93;10.43;;;10.40;64.20;;;;;;5102956;27;20076;-60
2022/03/23 05:24:20;;;;;;;16.42;10.32;;;10.40;64.10;;;;;;5103350;27;20024;-61
2022/03/23 05:26:45;;;;;;;12.30;9.77;;;10.30;64.10;;;;;;5123908;27;20023;-61
2022/03/23 05:29:11;;;;;;;18.70;10.07;;;10.30;64.10;;;;;;5122018;27;20033;-61
2022/03/23 05:31:37;;;;;;;13.88;10.95;;;10.40;64.30;;;;;;5122389;27;20118;-61
2022/03/23 05:34:03;;;;;;;18.50;10.50;;;10.30;64.30;;;;;;5104721;27;20490;-61
2022/03/23 05:36:30;;;;;;;15.65;9.95;;;10.30;64.40;;;;;;5123382;27;20038;-60
2022/03/23 05:38:56;;;;;;;14.05;10.27;;;10.30;64.40;;;;;;5105123;27;20034;-61
2022/03/23 05:41:22;;;;;;;58.78;14.52;;;10.30;64.40;;;;;;5088958;27;20065;-60
2022/03/23 05:43:48;;;;;;;30.17;12.10;;;10.30;64.40;;;;;;5124083;27;20430;-60
2022/03/23 05:46:13;;;;;;;24.90;11.20;;;10.30;64.30;;;;;;5123441;27;20042;-61
2022/03/23 05:48:39;;;;;;;22.13;12.10;;;10.30;64.30;;;;;;5104859;27;20039;-62
2022/03/23 05:51:04;;;;;;;33.67;13.13;;;10.30;64.30;;;;;;5103594;27;20213;-61
2022/03/23 05:53:30;;;;;;;20.98;12.02;;;10.30;64.40;;;;;;5122119;27;20027;-61
2022/03/23 05:55:55;;;;;;;33.00;11.98;;;10.30;64.60;;;;;;5101756;27;20056;-60
2022/03/23 05:58:22;;;;;;;30.73;11.48;;;10.30;64.90;;;;;;5124055;27;20099;-60
2022/03/23 06:00:47;;;;;;;22.17;11.20;;;10.20;64.80;;;;;;5123431;27;20038;-65
2022/03/23 06:03:13;;;;;;;23.48;10.55;;;10.30;64.90;;;;;;5104280;27;20038;-61
2022/03/23 06:05:38;;;;;;;26.00;12.13;;;10.30;65.00;;;;;;5123507;27;20035;-60
2022/03/23 06:08:04;;;;;;;25.95;11.30;;;10.20;65.20;;;;;;5123212;27;20144;-61
2022/03/23 06:10:30;;;;;;;22.73;11.23;;;10.20;65.10;;;;;;5119783;27;20031;-65
2022/03/23 06:12:56;;;;;;;20.17;11.02;;;10.20;65.10;;;;;;5103472;27;20049;-62
2022/03/23 06:15:22;;;;;;;24.73;11.73;;;10.20;65.20;;;;;;5100662;27;20120;-61
2022/03/23 06:17:47;;;;;;;31.73;11.00;;;10.20;65.20;;;;;;5104740;27;20050;-62
2022/03/23 06:20:14;;;;;;;24.27;10.93;;;10.10;65.20;;;;;;5103627;27;20027;-62
2022/03/23 06:22:39;;;;;;;29.42;11.45;;;10.10;65.20;;;;;;5086233;27;20122;-61
2022/03/23 06:25:07;;;;;;;28.40;11.70;;;10.10;65.20;;;;;;5119030;27;20117;-61
2022/03/23 06:27:32;;;;;;;20.67;10.35;;;10.10;65.20;;;;;;5099380;27;20027;-62
2022/03/23 06:29:58;;;;;;;27.33;11.63;;;10.00;65.10;;;;;;5120050;27;20036;-61
2022/03/23 06:32:23;;;;;;;23.52;11.63;;;10.10;65.10;;;;;;5118495;27;20050;-61
2022/03/23 06:34:49;;;;;;;21.90;11.02;;;10.10;65.00;;;;;;5121826;27;20039;-61
2022/03/23 06:37:14;;;;;;;27.10;11.27;;;10.10;65.00;;;;;;5085918;27;20032;-60
2022/03/23 06:39:40;;;;;;;18.33;10.82;;;10.10;65.00;;;;;;5101125;27;20044;-61
2022/03/23 06:42:06;;;;;;;17.95;10.38;;;10.10;65.40;;;;;;5121971;27;20067;-62
2022/03/23 06:44:31;;;;;;;23.88;11.35;;;10.00;65.10;;;;;;5086640;27;20345;-60
2022/03/23 06:46:57;;;;;;;21.88;11.00;;;10.00;65.20;;;;;;5121361;27;20098;-62
2022/03/23 06:49:22;;;;;;;26.75;11.25;;;10.00;65.20;;;;;;5101711;27;20462;-61
2022/03/23 06:51:48;;;;;;;27.10;10.63;;;10.00;65.20;;;;;;5120556;27;20151;-61
2022/03/23 06:54:13;;;;;;;25.65;11.43;;;10.00;65.30;;;;;;5086011;27;20061;-61
2022/03/23 06:56:39;;;;;;;20.70;10.80;;;10.00;65.40;;;;;;5119697;27;20099;-61
2022/03/23 06:59:04;;;;;;;22.67;10.30;;;10.00;65.40;;;;;;5120978;27;20138;-61
2022/03/23 07:01:30;;;;;;;24.75;10.55;;;10.00;65.50;;;;;;5121145;27;20113;-61
2022/03/23 07:03:56;;;;;;;19.20;9.90;;;10.00;65.50;;;;;;5086438;27;20431;-61
2022/03/23 07:06:21;;;;;;;21.15;10.65;;;10.00;65.60;;;;;;5102770;27;20039;-61
2022/03/23 07:11:31;;;;;;;23.33;10.57;;;10.00;65.60;;;;;;5120777;27;20155;-61
2022/03/23 07:13:56;;;;;;;32.00;11.23;;;10.00;65.60;;;;;;5120710;27;20035;-62
2022/03/23 07:16:22;;;;;;;22.80;10.70;;;9.90;65.60;;;;;;5103344;27;20066;-60
2022/03/23 07:18:48;;;;;;;22.50;11.80;;;10.00;65.50;;;;;;5122049;27;20470;-60
2022/03/23 07:21:14;;;;;;;20.73;11.32;;;10.00;65.60;;;;;;5101930;27;20542;-61
2022/03/23 07:23:39;;;;;;;21.70;10.98;;;9.90;65.60;;;;;;5101998;27;20045;-61
2022/03/23 07:26:06;;;;;;;21.58;11.25;;;10.00;65.70;;;;;;5083358;27;20038;-61
2022/03/23 07:28:32;;;;;;;22.77;11.13;;;10.00;65.70;;;;;;5068633;27;20023;-60
2022/03/23 07:30:57;;;;;;;19.45;11.55;;;9.90;65.70;;;;;;5087085;28;20595;-61
2022/03/23 07:33:23;;;;;;;23.73;11.75;;;9.90;65.70;;;;;;5096954;28;20073;-62
2022/03/23 07:35:48;;;;;;;47.33;14.70;;;9.90;65.60;;;;;;5100367;27;20042;-60
2022/03/23 07:38:14;;;;;;;34.38;12.70;;;9.90;65.70;;;;;;5082697;28;20425;-60
2022/03/23 07:40:40;;;;;;;70.22;16.25;;;9.90;65.70;;;;;;5064328;28;20031;-61
2022/03/23 07:43:06;;;;;;;36.97;12.75;;;9.90;65.70;;;;;;5096950;28;20115;-62
2022/03/23 07:45:32;;;;;;;24.58;11.68;;;9.90;65.70;;;;;;5075325;28;20092;-61
2022/03/23 07:47:57;;;;;;;26.30;11.95;;;9.90;65.80;;;;;;5092237;28;20040;-61
2022/03/23 07:50:23;;;;;;;31.45;11.60;;;9.90;65.90;;;;;;5060216;27;20023;-61
2022/03/23 07:52:49;;;;;;;21.95;11.50;;;9.90;66.50;;;;;;5072456;28;20032;-61
2022/03/23 07:55:15;;;;;;;26.42;12.52;;;9.90;65.90;;;;;;5095438;28;20122;-61
2022/03/23 07:57:40;;;;;;;31.02;12.52;;;9.90;66.00;;;;;;5057800;28;20070;-61
2022/03/23 08:00:06;;;;;;;41.45;14.48;;;9.90;66.00;;;;;;5078130;28;20024;-60
2022/03/23 08:02:32;;;;;;;32.83;13.05;;;9.90;66.00;;;;;;5076925;28;20058;-61
2022/03/23 08:04:59;;;;;;;48.30;14.10;;;9.90;66.00;;;;;;5095088;28;20019;-61
2022/03/23 08:07:24;;;;;;;35.00;13.68;;;9.90;66.00;;;;;;5072437;28;20209;-61
2022/03/23 08:09:50;;;;;;;105.53;24.15;;;9.90;66.10;;;;;;5074001;28;20414;-61
2022/03/23 08:12:17;;;;;;;94.35;18.58;;;10.00;66.30;;;;;;5068188;28;20055;-60
2022/03/23 08:14:44;;;;;;;67.70;17.10;;;9.90;66.30;;;;;;5093968;27;20042;-61
2022/03/23 08:17:09;;;;;;;72.68;16.20;;;9.90;66.20;;;;;;5085781;28;25914;-62
2022/03/23 08:19:35;;;;;;;60.65;15.68;;;9.90;66.30;;;;;;5055135;28;20138;-60
2022/03/23 08:22:01;;;;;;;83.78;16.92;;;10.00;66.30;;;;;;5077459;28;20035;-61
2022/03/23 08:24:27;;;;;;;68.57;15.63;;;9.90;66.10;;;;;;5069317;28;20466;-61
2022/03/23 08:26:53;;;;;;;70.35;15.48;;;9.90;66.20;;;;;;5058090;28;20031;-61
2022/03/23 08:29:19;;;;;;;64.68;16.90;;;10.00;66.10;;;;;;5058612;28;20024;-61
2022/03/23 08:31:44;;;;;;;65.75;17.02;;;10.00;66.20;;;;;;5106796;27;20084;-61
2022/03/23 08:34:10;;;;;;;66.57;16.08;;;10.00;66.20;;;;;;5107318;28;20080;-61
2022/03/23 08:36:36;;;;;;;59.78;14.80;;;10.00;66.10;;;;;;5088803;28;20399;-61
2022/03/23 08:39:01;;;;;;;49.13;15.48;;;10.00;66.00;;;;;;5064481;28;20034;-61
2022/03/23 08:41:27;;;;;;;59.80;16.65;;;10.10;66.00;;;;;;5083210;28;20952;-61
2022/03/23 08:43:53;;;;;;;74.97;16.75;;;10.10;66.00;;;;;;5082569;27;21506;-61
2022/03/23 08:46:18;;;;;;;63.05;17.13;;;10.10;66.00;;;;;;5072080;28;20799;-61
2022/03/23 08:48:44;;;;;;;84.82;17.00;;;10.10;66.20;;;;;;5052874;28;20036;-60
2022/03/23 08:51:11;;;;;;;73.05;18.52;;;10.10;66.20;;;;;;5084317;27;20080;-62
2022/03/23 08:53:38;;;;;;;70.10;18.10;;;10.10;66.30;;;;;;5047556;28;20076;-62
2022/03/23 08:56:04;;;;;;;78.57;17.88;;;10.10;66.50;;;;;;5089813;27;20526;-61
2022/03/23 08:58:30;;;;;;;88.90;19.58;;;10.10;66.80;;;;;;5075438;27;20058;-61
2022/03/23 09:00:55;;;;;;;104.43;19.92;;;10.10;66.90;;;;;;5078896;27;20027;-61
2022/03/23 09:03:21;;;;;;;98.40;20.63;;;10.10;66.90;;;;;;5093357;27;20404;-61
2022/03/23 09:05:46;;;;;;;101.22;19.95;;;10.20;67.80;;;;;;5096278;27;20126;-60
2022/03/23 09:08:12;;;;;;;373.45;41.20;;;10.20;67.80;;;;;;5073792;27;20019;-61
2022/03/23 09:10:37;;;;;;;134.02;23.38;;;10.20;67.00;;;;;;5087900;27;20093;-61
2022/03/23 09:13:03;;;;;;;113.00;20.15;;;10.20;67.00;;;;;;5090257;27;20023;-60
2022/03/23 09:15:30;;;;;;;90.75;19.50;;;10.20;66.80;;;;;;5096040;27;20118;-61
2022/03/23 09:17:59;;;;;;;103.25;21.35;;;10.20;66.80;;;;;;5069163;28;20032;-61
2022/03/23 09:20:28;;;;;;;103.90;20.48;;;10.30;66.90;;;;;;5067647;27;20023;-60
2022/03/23 09:22:54;;;;;;;94.80;19.40;;;10.30;66.90;;;;;;5076328;28;20016;-61
2022/03/23 09:25:22;;;;;;;68.43;16.63;;;10.30;66.90;;;;;;5081158;27;20644;-61
2022/03/23 09:27:47;;;;;;;82.15;17.75;;;10.30;66.90;;;;;;5096833;27;20053;-60
2022/03/23 09:30:13;;;;;;;66.47;17.45;;;10.30;66.80;;;;;;5115761;27;20390;-60
2022/03/23 09:32:39;;;;;;;76.45;17.63;;;10.30;66.90;;;;;;5115705;27;20076;-61
2022/03/23 09:35:06;;;;;;;180.40;26.20;;;10.30;67.00;;;;;;5093601;27;20114;-60
2022/03/23 09:37:50;;;;;;;145.75;23.90;;;10.40;67.00;;;;;;5095911;27;20031;-61
2022/03/23 09:40:25;;;;;;;154.18;24.52;;;10.40;67.00;;;;;;5082901;27;20050;-60
2022/03/23 09:42:52;;;;;;;117.80;20.80;;;10.20;67.00;;;;;;5093829;27;20796;-61
2022/03/23 09:45:59;;;;;;;81.50;18.30;;;10.40;67.00;;;;;;5096518;27;20554;-61
2022/03/23 09:48:09;;;;;;;94.50;19.65;;;10.40;66.90;;;;;;5097747;27;20501;-61
2022/03/23 09:50:34;;;;;;;96.35;20.88;;;10.50;67.10;;;;;;5076651;27;20046;-61
2022/03/23 09:53:00;;;;;;;63.50;17.20;;;10.40;67.70;;;;;;5071673;27;20122;-61
2022/03/23 09:55:26;;;;;;;70.25;16.73;;;10.50;66.60;;;;;;5056415;27;20181;-61
2022/03/23 09:57:55;;;;;;;72.03;17.05;;;10.50;66.40;;;;;;5037211;27;20078;-61
2022/03/23 10:00:21;;;;;;;62.25;17.38;;;10.50;66.40;;;;;;5075293;27;20227;-61
2022/03/23 10:02:58;;;;;;;60.65;16.50;;;10.60;66.20;;;;;;5043239;27;21088;-61
2022/03/23 10:05:58;;;;;;;60.60;16.30;;;10.60;66.00;;;;;;5077497;27;20036;-61
2022/03/23 10:09:01;;;;;;;66.22;18.33;;;10.80;66.20;;;;;;5083525;27;20043;-62
2022/03/23 10:12:04;;;;;;;77.28;16.65;;;10.70;66.10;;;;;;5083300;27;20180;-61
2022/03/23 10:14:45;;;;;;;77.55;16.75;;;10.70;65.80;;;;;;5079520;27;20093;-61
2022/03/23 10:17:42;;;;;;;64.57;17.35;;;10.80;65.90;;;;;;5078022;27;20172;-61
2022/03/23 10:20:08;;;;;;;71.65;18.50;;;10.80;66.10;;;;;;5077924;27;20028;-61
2022/03/23 10:22:33;;;;;;;61.72;16.50;;;10.90;66.80;;;;;;5093245;27;20035;-61
2022/03/23 10:25:09;;;;;;;54.63;16.67;;;10.90;66.10;;;;;;5085407;27;20051;-63
2022/03/23 10:27:34;;;;;;;93.40;19.08;;;10.90;66.00;;;;;;5094944;27;20019;-61
2022/03/23 10:30:00;;;;;;;72.60;17.42;;;11.00;66.00;;;;;;5085971;27;20092;-61
2022/03/23 10:32:33;;;;;;;58.53;16.55;;;11.00;65.80;;;;;;5093839;27;20039;-61
2022/03/23 10:34:59;;;;;;;59.45;17.20;;;11.00;65.80;;;;;;5058711;27;20107;-60
2022/03/23 10:37:26;;;;;;;54.85;16.90;;;11.00;65.50;;;;;;5069282;28;20032;-62
2022/03/23 10:39:53;;;;;;;70.88;16.92;;;11.10;65.50;;;;;;5067189;28;20042;-60
2022/03/23 10:42:20;;;;;;;61.17;17.67;;;11.10;65.80;;;;;;5066702;27;20085;-61
2022/03/23 10:44:46;;;;;;;58.13;17.42;;;11.20;65.90;;;;;;5062093;28;20563;-61
2022/03/23 10:47:25;;;;;;;56.70;17.63;;;11.20;65.80;;;;;;5066168;28;20040;-61
2022/03/23 10:49:51;;;;;;;63.88;17.33;;;11.20;65.70;;;;;;5097803;28;20030;-60
2022/03/23 10:52:17;;;;;;;63.05;17.00;;;11.30;65.40;;;;;;5074715;28;20035;-62
2022/03/23 10:54:59;;;;;;;60.63;16.88;;;11.30;65.20;;;;;;5058171;27;20039;-61
2022/03/23 10:57:43;;;;;;;61.05;17.05;;;11.30;65.20;;;;;;5075536;27;20062;-61
2022/03/23 11:00:17;;;;;;;83.07;18.85;;;11.40;64.90;;;;;;5074794;28;21648;-61
2022/03/23 11:02:46;;;;;;;94.63;20.98;;;11.40;64.90;;;;;;5074028;28;20055;-61
2022/03/23 11:05:14;;;;;;;76.18;17.65;;;11.50;64.70;;;;;;5095723;28;20024;-61
2022/03/23 11:07:40;;;;;;;63.65;16.95;;;11.50;64.50;;;;;;5058389;28;20028;-61
2022/03/23 11:15:48;;;;;;;80.03;20.15;;;11.70;64.20;;;;;;5077434;28;20084;-61
2022/03/23 11:18:18;;;;;;;85.63;18.83;;;11.70;63.80;;;;;;5091126;28;20065;-62
2022/03/23 11:20:51;;;;;;;78.25;18.27;;;11.80;63.70;;;;;;5060699;27;20020;-62
2022/03/23 11:23:18;;;;;;;70.53;18.23;;;11.80;63.60;;;;;;5092278;27;20134;-61
2022/03/23 11:25:45;;;;;;;63.03;18.13;;;11.90;63.30;;;;;;5076554;28;20028;-61
2022/03/23 11:28:11;;;;;;;58.63;17.38;;;11.90;63.10;;;;;;5077817;28;20027;-60
2022/03/23 11:30:37;;;;;;;95.97;19.27;;;12.00;63.20;;;;;;5064660;27;20440;-61
2022/03/23 11:33:03;;;;;;;74.93;17.60;;;12.00;62.50;;;;;;5083181;27;20068;-61
2022/03/23 11:35:29;;;;;;;67.60;18.02;;;12.10;62.40;;;;;;5075049;28;20135;-62
2022/03/23 11:37:55;;;;;;;80.65;19.35;;;12.20;62.50;;;;;;5089207;28;20472;-61
2022/03/23 11:40:20;;;;;;;52.17;17.13;;;12.20;62.40;;;;;;5076543;27;20057;-61
2022/03/23 11:42:46;;;;;;;65.63;17.83;;;12.30;62.30;;;;;;5088825;27;20035;-61
2022/03/23 11:45:12;;;;;;;67.00;17.67;;;12.30;61.30;;;;;;5068233;28;20059;-62
2022/03/23 11:47:51;;;;;;;67.10;16.48;;;12.40;61.30;;;;;;5068014;28;20030;-62
2022/03/23 11:50:26;;;;;;;74.47;18.08;;;12.40;60.50;;;;;;5076378;27;20039;-61
2022/03/23 11:53:02;;;;;;;55.90;16.25;;;12.50;60.60;;;;;;5057104;27;20035;-61
2022/03/23 11:55:37;;;;;;;58.17;16.85;;;12.60;60.30;;;;;;5088655;27;20053;-61
2022/03/23 11:58:08;;;;;;;45.05;16.73;;;12.60;60.00;;;;;;5093766;27;20058;-62
2022/03/23 12:00:39;;;;;;;71.45;17.52;;;12.70;59.80;;;;;;5093069;27;20173;-62
2022/03/23 12:03:04;;;;;;;55.15;16.05;;;12.80;59.70;;;;;;5108952;27;20095;-62
2022/03/23 12:05:37;;;;;;;65.28;15.88;;;12.80;59.40;;;;;;5086426;27;20057;-61
2022/03/23 12:08:03;;;;;;;50.67;16.75;;;12.90;59.10;;;;;;5086524;27;20145;-61
2022/03/23 12:10:31;;;;;;;51.60;15.82;;;12.90;58.70;;;;;;5068316;27;20091;-61
2022/03/23 12:12:57;;;;;;;48.35;16.17;;;13.00;58.60;;;;;;5088747;28;20031;-61
2022/03/23 12:15:26;;;;;;;69.38;16.75;;;13.00;57.50;;;;;;5061080;28;20071;-62
2022/03/23 12:17:58;;;;;;;54.33;14.95;;;13.10;58.20;;;;;;5074064;28;20028;-62
2022/03/23 12:20:31;;;;;;;47.10;15.25;;;13.10;58.00;;;;;;5097519;27;20125;-61
2022/03/23 12:23:33;;;;;;;70.18;16.90;;;13.20;57.70;;;;;;5086780;27;20082;-61
2022/03/23 12:26:24;;;;;;;83.38;18.58;;;13.30;57.20;;;;;;5040159;28;20125;-61
2022/03/23 12:29:02;;;;;;;71.53;16.80;;;13.30;58.90;;;;;;5077453;27;20135;-62
2022/03/23 12:31:38;;;;;;;46.80;13.73;;;13.40;59.10;;;;;;5085581;28;20138;-62
2022/03/23 12:34:20;;;;;;;66.78;17.20;;;13.40;55.90;;;;;;5086398;27;20039;-61
2022/03/23 12:36:56;;;;;;;82.05;17.80;;;13.50;57.20;;;;;;5084049;27;20043;-61
2022/03/23 12:39:44;;;;;;;63.05;16.52;;;13.60;58.40;;;;;;5113381;27;20027;-62
2022/03/23 12:42:13;;;;;;;64.70;16.13;;;13.70;58.90;;;;;;5094535;28;20036;-62
2022/03/23 12:45:19;;;;;;;61.83;15.88;;;13.70;59.10;;;;;;5113871;27;20035;-61
2022/03/23 12:47:55;;;;;;;68.90;17.63;;;13.70;59.10;;;;;;5109581;27;20040;-62
2022/03/23 12:58:44;;;;;;;49.55;14.20;;;14.10;55.80;;;;;;5113118;27;20060;-61